createdAt,value
2023-05-21T00:00:43.734Z,22
2023-05-21T00:03:15.196Z,22
2023-05-21T00:05:46.078Z,24
2023-05-21T00:08:16.873Z,20
2023-05-21T00:10:47.396Z,20
2023-05-21T00:13:18.079Z,24
2023-05-21T00:15:48.547Z,20
2023-05-21T00:18:19.242Z,21
2023-05-21T00:20:49.998Z,24
2023-05-21T00:23:20.637Z,24
2023-05-21T00:25:51.465Z,20
2023-05-21T00:28:22.631Z,24
2023-05-21T00:30:54.526Z,24
2023-05-21T00:33:26.090Z,24
2023-05-21T00:35:56.819Z,20
2023-05-21T00:38:28.891Z,25
2023-05-21T00:40:59.481Z,24
2023-05-21T00:43:30.668Z,24
2023-05-21T00:46:01.186Z,24
2023-05-21T00:48:31.843Z,24
2023-05-21T00:51:03.743Z,20
2023-05-21T00:53:34.236Z,24
2023-05-21T00:56:06.037Z,20
2023-05-21T00:58:36.881Z,24
2023-05-21T01:01:07.985Z,24
2023-05-21T01:03:38.919Z,21
2023-05-21T01:06:09.859Z,27
2023-05-21T01:08:41.057Z,25
2023-05-21T01:11:12.482Z,22
2023-05-21T01:13:43.048Z,24
2023-05-21T01:16:13.955Z,23
2023-05-21T01:18:44.653Z,20
2023-05-21T01:21:15.464Z,23
2023-05-21T01:23:46.020Z,24
2023-05-21T01:26:16.920Z,25
2023-05-21T01:28:47.482Z,24
2023-05-21T01:31:18.657Z,24
2023-05-21T01:33:49.172Z,24
2023-05-21T01:36:20.800Z,24
2023-05-21T01:38:57.412Z,28
2023-05-21T01:41:28.553Z,26
2023-05-21T01:44:05.592Z,28
2023-05-21T01:46:36.734Z,25
2023-05-21T01:49:07.636Z,22
2023-05-21T01:51:38.187Z,24
2023-05-21T01:54:08.400Z,28
2023-05-21T01:56:38.987Z,20
2023-05-21T01:59:09.531Z,24
2023-05-21T02:01:40.017Z,24
2023-05-21T02:04:10.923Z,28
2023-05-21T02:06:42.225Z,25
2023-05-21T02:09:12.801Z,24
2023-05-21T02:11:43.514Z,24
2023-05-21T02:14:14.447Z,28
2023-05-21T02:16:43.532Z,24
2023-05-21T02:19:14.355Z,28
2023-05-21T02:21:45.531Z,20
2023-05-21T02:24:16.243Z,25
2023-05-21T02:26:47.226Z,24
2023-05-21T02:29:18.326Z,27
2023-05-21T02:31:49.554Z,24
2023-05-21T02:34:20.687Z,21
2023-05-21T02:36:51.945Z,28
2023-05-21T02:39:23.591Z,26
2023-05-21T02:41:55.928Z,26
2023-05-21T02:44:26.723Z,25
2023-05-21T02:46:57.586Z,24
2023-05-21T02:49:29.739Z,24
2023-05-21T02:52:00.625Z,24
2023-05-21T02:54:31.628Z,30
2023-05-21T02:57:02.901Z,27
2023-05-21T02:59:33.909Z,27
2023-05-21T03:02:05.025Z,28
2023-05-21T03:04:36.148Z,28
2023-05-21T03:07:06.862Z,24
2023-05-21T03:09:37.596Z,24
2023-05-21T03:12:08.627Z,24
2023-05-21T03:14:39.655Z,20
2023-05-21T03:17:12.110Z,24
2023-05-21T03:19:43.063Z,28
2023-05-21T03:22:13.952Z,28
2023-05-21T03:24:44.729Z,28
2023-05-21T03:27:15.505Z,24
2023-05-21T03:29:46.348Z,24
2023-05-21T03:32:17.171Z,23
2023-05-21T03:34:48.159Z,28
2023-05-21T03:37:18.751Z,28
2023-05-21T03:39:49.198Z,25
2023-05-21T03:42:19.570Z,27
2023-05-21T03:44:50.670Z,29
2023-05-21T03:47:21.504Z,24
2023-05-21T03:49:52.822Z,24
2023-05-21T03:52:23.410Z,27
2023-05-21T03:54:53.875Z,28
2023-05-21T03:57:24.758Z,28
2023-05-21T03:59:55.605Z,28
2023-05-21T04:02:26.138Z,28
2023-05-21T04:04:56.972Z,28
2023-05-21T04:07:27.426Z,28
2023-05-21T04:09:58.040Z,24
2023-05-21T04:12:29.117Z,28
2023-05-21T04:15:01.380Z,27
2023-05-21T04:17:31.703Z,28
2023-05-21T04:20:02.734Z,28
2023-05-21T04:22:33.899Z,24
2023-05-21T04:25:05.102Z,28
2023-05-21T04:27:34.381Z,25
2023-05-21T04:30:05.616Z,28
2023-05-21T04:32:36.850Z,24
2023-05-21T04:35:07.503Z,29
2023-05-21T04:37:39.532Z,27
2023-05-21T04:40:10.356Z,28
2023-05-21T04:42:40.976Z,25
2023-05-21T04:45:11.477Z,31
2023-05-21T04:47:42.327Z,26
2023-05-21T04:50:12.851Z,28
2023-05-21T04:52:43.235Z,28
2023-05-21T04:55:13.888Z,28
2023-05-21T04:57:44.400Z,30
2023-05-21T05:00:14.957Z,28
2023-05-21T05:02:45.274Z,32
2023-05-21T05:05:16.330Z,32
2023-05-21T05:07:47.503Z,32
2023-05-21T05:10:18.359Z,28
2023-05-21T05:12:48.885Z,31
2023-05-21T05:15:19.580Z,32
2023-05-21T05:17:50.843Z,32
2023-05-21T05:20:21.906Z,28
2023-05-21T05:22:52.948Z,28
2023-05-21T05:25:23.807Z,28
2023-05-21T05:27:54.651Z,30
2023-05-21T05:30:25.606Z,31
2023-05-21T05:32:56.199Z,32
2023-05-21T05:35:26.796Z,28
2023-05-21T05:37:57.639Z,32
2023-05-21T05:40:28.556Z,32
2023-05-21T05:42:59.450Z,32
2023-05-21T05:45:28.401Z,36
2023-05-21T05:47:59.487Z,29
2023-05-21T05:50:29.854Z,32
2023-05-21T05:53:01.051Z,32
2023-05-21T05:55:32.156Z,32
2023-05-21T05:58:02.523Z,36
2023-05-21T06:00:33.155Z,38
2023-05-21T06:03:04.304Z,30
2023-05-21T06:05:36.130Z,27
2023-05-21T06:08:06.828Z,31
2023-05-21T06:10:37.431Z,31
2023-05-21T06:13:06.646Z,29
2023-05-21T06:15:38.491Z,28
2023-05-21T06:18:11.597Z,32
2023-05-21T06:20:46.041Z,31
2023-05-21T06:23:16.737Z,29
2023-05-21T06:25:46.668Z,24
2023-05-21T06:28:18.025Z,23
2023-05-21T06:30:49.521Z,21
2023-05-21T06:33:23.327Z,26
2023-05-21T06:35:56.535Z,26
2023-05-21T06:38:27.696Z,31
2023-05-21T06:41:02.317Z,24
2023-05-21T06:43:39.606Z,27
2023-05-21T06:46:10.718Z,24
2023-05-21T06:48:41.454Z,24
2023-05-21T06:51:11.967Z,25
2023-05-21T06:53:42.917Z,24
2023-05-21T06:56:13.535Z,27
2023-05-21T06:58:44.450Z,24
2023-05-21T07:01:15.304Z,24
2023-05-21T07:03:46.697Z,24
2023-05-21T07:06:17.354Z,26
2023-05-21T07:08:51.457Z,26
2023-05-21T07:11:21.728Z,25
2023-05-21T07:13:52.440Z,28
2023-05-21T07:16:23.388Z,24
2023-05-21T07:18:53.957Z,24
2023-05-21T07:21:24.710Z,24
2023-05-21T07:23:55.965Z,23
2023-05-21T07:26:26.411Z,25
2023-05-21T07:28:57.074Z,25
2023-05-21T07:31:28.236Z,24
2023-05-21T07:33:59.055Z,28
2023-05-21T07:36:29.172Z,27
2023-05-21T07:38:59.862Z,25
2023-05-21T07:41:30.361Z,45
2023-05-21T07:44:00.951Z,43
2023-05-21T07:46:32.083Z,52
2023-05-21T07:49:02.838Z,32
2023-05-21T07:51:33.690Z,28
2023-05-21T07:54:04.186Z,28
2023-05-21T07:56:36.088Z,24
2023-05-21T07:59:10.264Z,24
2023-05-21T08:01:40.195Z,24
2023-05-21T08:04:11.534Z,24
2023-05-21T08:06:42.109Z,24
2023-05-21T08:09:11.222Z,28
2023-05-21T08:11:48.897Z,32
2023-05-21T08:14:33.644Z,24
2023-05-21T08:17:05.334Z,35
2023-05-21T08:19:35.980Z,32
2023-05-21T08:22:06.328Z,28
2023-05-21T08:24:39.392Z,20
2023-05-21T08:27:10.086Z,24
2023-05-21T08:29:44.753Z,20
2023-05-21T08:32:15.667Z,24
2023-05-21T08:34:47.823Z,28
2023-05-21T08:37:18.228Z,23
2023-05-21T08:39:49.172Z,27
2023-05-21T08:42:29.291Z,20
2023-05-21T08:44:51.156Z,24
2023-05-21T08:47:21.391Z,20
2023-05-21T08:49:52.122Z,21
2023-05-21T08:52:23.003Z,24
2023-05-21T08:54:52.796Z,32
2023-05-21T08:57:22.908Z,28
2023-05-21T08:59:53.270Z,23
2023-05-21T09:02:23.606Z,28
2023-05-21T09:04:55.078Z,21
2023-05-21T09:07:25.487Z,28
2023-05-21T09:09:59.032Z,27
2023-05-21T09:12:29.509Z,24
2023-05-21T09:15:00.562Z,28
2023-05-21T09:17:31.221Z,21
2023-05-21T09:20:02.052Z,24
2023-05-21T09:22:32.563Z,20
2023-05-21T09:25:05.991Z,24
2023-05-21T09:27:37.118Z,20
2023-05-21T09:30:08.785Z,24
2023-05-21T09:32:39.420Z,16
2023-05-21T09:35:11.564Z,23
2023-05-21T09:37:42.014Z,20
2023-05-21T09:40:12.746Z,20
2023-05-21T09:42:43.626Z,22
2023-05-21T09:45:18.998Z,16
2023-05-21T09:47:51.273Z,20
2023-05-21T09:50:22.834Z,18
2023-05-21T09:55:41.570Z,20
2023-05-21T09:58:14.462Z,24
2023-05-21T10:00:45.331Z,24
2023-05-21T10:03:15.667Z,20
2023-05-21T10:05:47.188Z,20
2023-05-21T10:08:19.039Z,18
2023-05-21T10:10:49.897Z,20
2023-05-21T10:13:20.853Z,24
2023-05-21T10:15:51.228Z,24
2023-05-21T10:18:21.810Z,21
2023-05-21T10:20:52.305Z,20
2023-05-21T10:23:23.749Z,17
2023-05-21T10:25:55.284Z,16
2023-05-21T10:28:25.854Z,20
2023-05-21T10:30:58.337Z,20
2023-05-21T10:33:29.149Z,24
2023-05-21T10:36:00.195Z,20
2023-05-21T10:38:31.293Z,20
2023-05-21T10:41:01.772Z,28
2023-05-21T10:43:36.463Z,20
2023-05-21T10:46:08.053Z,21
2023-05-21T10:48:42.968Z,20
2023-05-21T10:51:13.735Z,19
2023-05-21T10:53:44.656Z,24
2023-05-21T10:56:15.304Z,20
2023-05-21T10:58:47.053Z,20
2023-05-21T11:01:19.765Z,24
2023-05-21T11:03:50.879Z,24
2023-05-21T11:06:22.856Z,23
2023-05-21T11:08:55.447Z,23
2023-05-21T11:11:26.670Z,23
2023-05-21T11:13:56.659Z,17
2023-05-21T11:16:31.128Z,21
2023-05-21T11:19:01.759Z,25
2023-05-21T11:21:32.375Z,32
2023-05-21T11:24:02.974Z,29
2023-05-21T11:26:37.400Z,24
2023-05-21T11:29:11.575Z,28
2023-05-21T11:31:42.581Z,20
2023-05-21T11:34:17.546Z,24
2023-05-21T11:36:47.246Z,24
2023-05-21T11:39:17.806Z,20
2023-05-21T11:41:48.646Z,20
2023-05-21T11:44:22.133Z,16
2023-05-21T11:46:52.752Z,20
2023-05-21T11:49:20.988Z,24
2023-05-21T11:51:55.839Z,23
2023-05-21T11:54:30.412Z,20
2023-05-21T11:57:00.995Z,17
2023-05-21T11:59:37.682Z,20
2023-05-21T12:02:13.997Z,20
2023-05-21T12:04:44.387Z,24
2023-05-21T12:07:15.075Z,17
2023-05-21T12:09:45.659Z,16
2023-05-21T12:12:14.681Z,19
2023-05-21T12:14:45.422Z,16
2023-05-21T12:17:15.959Z,20
2023-05-21T12:19:45.458Z,16
2023-05-21T12:22:16.961Z,17
2023-05-21T12:24:48.074Z,16
2023-05-21T12:27:29.013Z,18
2023-05-21T12:30:04.398Z,20
2023-05-21T12:32:34.753Z,17
2023-05-21T12:35:05.488Z,17
2023-05-21T12:37:35.806Z,20
2023-05-21T12:40:07.510Z,20
2023-05-21T12:42:38.999Z,16
2023-05-21T12:45:08.102Z,16
2023-05-21T12:47:39.026Z,19
2023-05-21T12:50:09.838Z,24
2023-05-21T12:52:40.748Z,24
2023-05-21T12:55:11.318Z,21
2023-05-21T12:57:40.857Z,24
2023-05-21T13:00:11.833Z,20
2023-05-21T13:02:42.337Z,18
2023-05-21T13:05:12.615Z,12
2023-05-21T13:07:41.852Z,33
2023-05-21T13:10:12.213Z,16
2023-05-21T13:12:43.551Z,19
2023-05-21T13:15:10.162Z,21
2023-05-21T13:17:41.590Z,20
2023-05-21T13:20:10.978Z,20
2023-05-21T13:22:42.660Z,17
2023-05-21T13:25:14.088Z,28
2023-05-21T13:27:45.309Z,20
2023-05-21T13:30:19.684Z,20
2023-05-21T13:32:52.525Z,27
2023-05-21T13:35:32.976Z,22
2023-05-21T13:40:46.471Z,19
2023-05-21T13:43:19.065Z,23
2023-05-21T13:45:50.033Z,23
2023-05-21T13:48:26.857Z,27
2023-05-21T13:50:57.282Z,24
2023-05-21T13:53:27.728Z,20
2023-05-21T13:55:57.484Z,16
2023-05-21T13:58:27.772Z,16
2023-05-21T14:00:58.722Z,16
2023-05-21T14:03:30.878Z,27
2023-05-21T14:06:01.702Z,14
2023-05-21T14:08:30.582Z,16
2023-05-21T14:11:02.710Z,16
2023-05-21T14:13:32.608Z,18
2023-05-21T14:16:03.401Z,16
2023-05-21T14:18:34.014Z,16
2023-05-21T14:21:04.651Z,16
2023-05-21T14:23:33.856Z,20
2023-05-21T14:26:04.832Z,16
2023-05-21T14:28:34.045Z,16
2023-05-21T14:31:04.853Z,16
2023-05-21T14:33:37.553Z,16
2023-05-21T14:36:07.507Z,16
2023-05-21T14:38:38.268Z,20
2023-05-21T14:41:07.530Z,16
2023-05-21T14:43:38.385Z,14
2023-05-21T14:46:08.938Z,12
2023-05-21T14:48:39.188Z,16
2023-05-21T14:53:41.944Z,16
2023-05-21T14:56:12.442Z,28
2023-05-21T14:58:43.174Z,20
2023-05-21T15:01:19.083Z,20
2023-05-21T15:03:49.251Z,20
2023-05-21T15:06:19.571Z,15
2023-05-21T15:08:50.212Z,19
2023-05-21T15:11:20.709Z,16
2023-05-21T15:13:55.345Z,28
2023-05-21T15:16:33.155Z,24
2023-05-21T15:19:03.917Z,18
2023-05-21T15:21:36.062Z,16
2023-05-21T15:24:07.751Z,16
2023-05-21T15:26:38.323Z,16
2023-05-21T15:29:09.162Z,17
2023-05-21T15:31:40.091Z,16
2023-05-21T15:34:11.032Z,16
2023-05-21T15:36:40.761Z,20
2023-05-21T15:39:11.872Z,15
2023-05-21T15:41:42.505Z,16
2023-05-21T15:44:11.594Z,15
2023-05-21T15:46:42.062Z,16
2023-05-21T15:49:13.319Z,16
2023-05-21T15:51:44.502Z,12
2023-05-21T15:54:15.644Z,16
2023-05-21T15:56:47.686Z,12
2023-05-21T15:59:19.259Z,12
2023-05-21T16:01:49.759Z,16
2023-05-21T16:04:21.381Z,16
2023-05-21T16:06:51.775Z,16
2023-05-21T16:09:31.433Z,15
2023-05-21T16:12:02.428Z,12
2023-05-21T16:14:38.126Z,16
2023-05-21T16:17:11.895Z,20
2023-05-21T16:19:43.795Z,20
2023-05-21T16:22:13.983Z,23
2023-05-21T16:24:44.924Z,20
2023-05-21T16:27:13.912Z,23
2023-05-21T16:29:46.083Z,25
2023-05-21T16:32:17.670Z,28
2023-05-21T16:34:48.488Z,20
2023-05-21T16:37:18.823Z,18
2023-05-21T16:39:49.345Z,23
2023-05-21T16:42:18.635Z,19
2023-05-21T16:44:48.924Z,19
2023-05-21T16:47:18.577Z,18
2023-05-21T16:49:48.784Z,15
2023-05-21T16:52:19.747Z,20
2023-05-21T16:54:51.381Z,17
2023-05-21T16:57:22.161Z,16
2023-05-21T16:59:51.646Z,16
2023-05-21T17:02:22.367Z,20
2023-05-21T17:04:53.470Z,20
2023-05-21T17:07:24.911Z,20
2023-05-21T17:09:54.057Z,18
2023-05-21T17:12:24.360Z,20
2023-05-21T17:14:55.080Z,16
2023-05-21T17:17:28.368Z,17
2023-05-21T17:19:58.859Z,20
2023-05-21T17:22:30.294Z,20
2023-05-21T17:25:00.386Z,20
2023-05-21T17:27:29.259Z,20
2023-05-21T17:29:59.712Z,16
2023-05-21T17:32:30.103Z,16
2023-05-21T17:34:59.419Z,20
2023-05-21T17:37:30.047Z,16
2023-05-21T17:39:59.337Z,16
2023-05-21T17:42:29.018Z,20
2023-05-21T17:45:00.363Z,20
2023-05-21T17:47:31.225Z,17
2023-05-21T17:50:01.876Z,16
2023-05-21T17:52:33.883Z,19
2023-05-21T17:55:04.801Z,16
2023-05-21T17:57:35.193Z,20
2023-05-21T18:00:05.641Z,15
2023-05-21T18:02:36.308Z,19
2023-05-21T18:05:06.728Z,16
2023-05-21T18:07:38.336Z,13
2023-05-21T18:10:09.739Z,16
2023-05-21T18:12:38.892Z,16
2023-05-21T18:15:09.727Z,16
2023-05-21T18:17:41.289Z,16
2023-05-21T18:20:11.484Z,15
2023-05-21T18:22:40.404Z,15
2023-05-21T18:25:10.832Z,12
2023-05-21T18:27:41.433Z,15
2023-05-21T18:30:09.993Z,13
2023-05-21T18:32:40.521Z,13
2023-05-21T18:35:20.275Z,12
2023-05-21T18:37:50.666Z,16
2023-05-21T18:40:21.232Z,16
2023-05-21T18:42:51.712Z,37
2023-05-21T18:45:21.926Z,20
2023-05-21T18:47:52.103Z,27
2023-05-21T18:50:22.933Z,13
2023-05-21T18:52:53.398Z,14
2023-05-21T18:55:23.873Z,12
2023-05-21T18:57:54.615Z,13
2023-05-21T19:00:23.189Z,9
2023-05-21T19:02:52.116Z,13
2023-05-21T19:05:22.125Z,12
2023-05-21T19:07:53.749Z,12
2023-05-21T19:10:24.951Z,16
2023-05-21T19:12:54.041Z,15
2023-05-21T19:15:23.092Z,12
2023-05-21T19:17:53.531Z,15
2023-05-21T19:20:24.095Z,12
2023-05-21T19:22:53.486Z,12
2023-05-21T19:25:24.234Z,9
2023-05-21T19:27:53.007Z,12
2023-05-21T19:32:54.186Z,12
2023-05-21T19:35:25.030Z,12
2023-05-21T19:37:55.402Z,12
2023-05-21T19:40:26.105Z,16
2023-05-21T19:42:56.242Z,16
2023-05-21T19:45:27.712Z,20
2023-05-21T19:47:56.751Z,16
2023-05-21T19:50:28.116Z,12
2023-05-21T19:52:58.450Z,16
2023-05-21T19:55:28.806Z,12
2023-05-21T19:57:59.337Z,13
2023-05-21T20:00:29.857Z,8
2023-05-21T20:03:00.256Z,12
2023-05-21T20:05:30.704Z,12
2023-05-21T20:08:00.553Z,10
2023-05-21T20:10:31.046Z,9
2023-05-21T20:13:00.054Z,12
2023-05-21T20:15:30.284Z,19
2023-05-21T20:18:01.160Z,13
2023-05-21T20:20:30.732Z,13
2023-05-21T20:23:01.706Z,12
2023-05-21T20:25:30.791Z,12
2023-05-21T20:28:00.827Z,12
2023-05-21T20:30:31.662Z,12
2023-05-21T20:33:02.530Z,12
2023-05-21T20:35:32.897Z,15
2023-05-21T20:38:03.570Z,12
2023-05-21T20:40:34.472Z,12
2023-05-21T20:43:05.253Z,8
2023-05-21T20:45:35.082Z,12
2023-05-21T20:48:06.969Z,12
2023-05-21T20:50:37.828Z,12
2023-05-21T20:53:08.053Z,11
2023-05-21T20:55:38.808Z,8
2023-05-21T20:58:07.803Z,8
2023-05-21T21:00:39.762Z,10
2023-05-21T21:03:10.544Z,9
2023-05-21T21:05:41.229Z,11
2023-05-21T21:08:14.035Z,12
2023-05-21T21:10:44.160Z,11
2023-05-21T21:13:14.468Z,8
2023-05-21T21:15:45.188Z,12
2023-05-21T21:18:15.941Z,12
2023-05-21T21:20:45.132Z,8
2023-05-21T21:23:15.705Z,12
2023-05-21T21:28:16.053Z,12
2023-05-21T21:30:46.681Z,11
2023-05-21T21:33:16.383Z,12
2023-05-21T21:35:50.391Z,8
2023-05-21T21:38:20.823Z,12
2023-05-21T21:40:53.291Z,12
2023-05-21T21:43:22.370Z,8
2023-05-21T21:45:52.481Z,12
2023-05-21T21:48:24.432Z,12
2023-05-21T21:50:55.151Z,12
2023-05-21T21:53:25.870Z,12
2023-05-21T21:58:46.761Z,8
2023-05-21T22:01:26.120Z,12
2023-05-21T22:04:00.818Z,12
2023-05-21T22:06:38.375Z,11
2023-05-21T22:09:08.990Z,12
2023-05-21T22:11:45.417Z,11
2023-05-21T22:14:15.967Z,13
2023-05-21T22:16:47.064Z,9
2023-05-21T22:19:17.685Z,13
2023-05-21T22:21:48.087Z,8
2023-05-21T22:24:32.353Z,8
2023-05-21T22:26:59.990Z,8
2023-05-21T22:29:33.243Z,9
2023-05-21T22:32:03.608Z,12
2023-05-21T22:34:34.634Z,12
2023-05-21T22:37:06.175Z,8
2023-05-21T22:39:36.444Z,10
2023-05-21T22:42:06.849Z,11
2023-05-21T22:44:37.537Z,12
2023-05-21T22:47:08.190Z,12
2023-05-21T22:49:38.903Z,8
2023-05-21T22:52:10.656Z,8
2023-05-21T22:54:39.531Z,15
2023-05-21T22:57:17.921Z,12
2023-05-21T22:59:48.687Z,12
2023-05-21T23:02:19.486Z,12
2023-05-21T23:04:48.958Z,12
2023-05-21T23:07:19.564Z,9
2023-05-21T23:09:51.451Z,11
2023-05-21T23:12:23.361Z,12
2023-05-21T23:14:53.872Z,8
2023-05-21T23:17:24.519Z,8
2023-05-21T23:19:55.164Z,13
2023-05-21T23:22:36.364Z,12
2023-05-21T23:25:09.839Z,12
2023-05-21T23:27:41.310Z,8
2023-05-21T23:30:13.951Z,11
2023-05-21T23:32:44.349Z,10
2023-05-21T23:35:24.126Z,13
2023-05-21T23:37:58.930Z,12
2023-05-21T23:40:28.994Z,11
2023-05-21T23:42:59.623Z,12
2023-05-21T23:45:30.508Z,12
2023-05-21T23:48:01.050Z,12
2023-05-21T23:50:31.653Z,11
2023-05-21T23:53:02.405Z,12
2023-05-21T23:55:31.376Z,15
2023-05-21T23:58:01.805Z,8
